sensor_id;sensor_type;location;lat;lon;timestamp;P1;durP1;ratioP1;P2;durP2;ratioP2
31336;SDS011;22846;42.654;23.314;2023-02-02T00:00:45;9.05;;;7.40;;
31336;SDS011;22846;42.654;23.314;2023-02-02T00:03:10;9.45;;;7.45;;
31336;SDS011;22846;42.654;23.314;2023-02-02T00:05:36;8.63;;;7.15;;
31336;SDS011;22846;42.654;23.314;2023-02-02T00:08:01;9.55;;;7.35;;
31336;SDS011;22846;42.654;23.314;2023-02-02T00:10:27;8.95;;;7.13;;
31336;SDS011;22846;42.654;23.314;2023-02-02T00:12:52;8.43;;;6.97;;
31336;SDS011;22846;42.654;23.314;2023-02-02T00:15:21;9.95;;;7.10;;
31336;SDS011;22846;42.654;23.314;2023-02-02T00:17:47;8.38;;;6.75;;
31336;SDS011;22846;42.654;23.314;2023-02-02T00:20:13;8.43;;;6.90;;
31336;SDS011;22846;42.654;23.314;2023-02-02T00:22:39;8.45;;;6.65;;
31336;SDS011;22846;42.654;23.314;2023-02-02T00:25:05;7.78;;;6.72;;
31336;SDS011;22846;42.654;23.314;2023-02-02T00:27:31;8.50;;;6.32;;
31336;SDS011;22846;42.654;23.314;2023-02-02T00:29:56;9.98;;;6.75;;
31336;SDS011;22846;42.654;23.314;2023-02-02T00:32:21;6.90;;;5.93;;
31336;SDS011;22846;42.654;23.314;2023-02-02T00:34:47;8.30;;;6.13;;
31336;SDS011;22846;42.654;23.314;2023-02-02T00:37:12;7.43;;;6.22;;
31336;SDS011;22846;42.654;23.314;2023-02-02T00:39:38;8.40;;;6.32;;
31336;SDS011;22846;42.654;23.314;2023-02-02T00:42:03;6.93;;;5.65;;
31336;SDS011;22846;42.654;23.314;2023-02-02T00:44:28;7.68;;;6.35;;
31336;SDS011;22846;42.654;23.314;2023-02-02T00:47:12;8.20;;;6.03;;
31336;SDS011;22846;42.654;23.314;2023-02-02T00:49:38;8.35;;;6.10;;
31336;SDS011;22846;42.654;23.314;2023-02-02T00:52:03;7.53;;;5.80;;
31336;SDS011;22846;42.654;23.314;2023-02-02T00:54:29;7.55;;;5.90;;
31336;SDS011;22846;42.654;23.314;2023-02-02T00:56:55;8.02;;;5.65;;
31336;SDS011;22846;42.654;23.314;2023-02-02T00:59:20;6.82;;;5.60;;
31336;SDS011;22846;42.654;23.314;2023-02-02T01:01:46;6.78;;;5.47;;
31336;SDS011;22846;42.654;23.314;2023-02-02T01:04:11;6.50;;;5.35;;
31336;SDS011;22846;42.654;23.314;2023-02-02T01:06:37;6.63;;;5.60;;
31336;SDS011;22846;42.654;23.314;2023-02-02T01:09:02;7.10;;;5.53;;
31336;SDS011;22846;42.654;23.314;2023-02-02T01:11:28;6.20;;;5.07;;
31336;SDS011;22846;42.654;23.314;2023-02-02T01:13:54;6.43;;;5.43;;
31336;SDS011;22846;42.654;23.314;2023-02-02T01:16:20;6.32;;;5.20;;
31336;SDS011;22846;42.654;23.314;2023-02-02T01:18:46;6.00;;;4.93;;
31336;SDS011;22846;42.654;23.314;2023-02-02T01:21:12;6.32;;;5.53;;
31336;SDS011;22846;42.654;23.314;2023-02-02T01:23:38;6.15;;;4.93;;
31336;SDS011;22846;42.654;23.314;2023-02-02T01:26:05;5.65;;;4.97;;
31336;SDS011;22846;42.654;23.314;2023-02-02T01:28:32;5.63;;;4.72;;
31336;SDS011;22846;42.654;23.314;2023-02-02T01:31:03;6.78;;;5.05;;
31336;SDS011;22846;42.654;23.314;2023-02-02T01:33:33;5.50;;;4.57;;
31336;SDS011;22846;42.654;23.314;2023-02-02T01:36:01;6.13;;;4.90;;
31336;SDS011;22846;42.654;23.314;2023-02-02T01:38:29;6.38;;;4.68;;
31336;SDS011;22846;42.654;23.314;2023-02-02T01:40:55;6.22;;;4.40;;
31336;SDS011;22846;42.654;23.314;2023-02-02T01:45:48;5.95;;;4.75;;
31336;SDS011;22846;42.654;23.314;2023-02-02T01:48:14;5.63;;;4.35;;
31336;SDS011;22846;42.654;23.314;2023-02-02T01:50:40;5.38;;;4.10;;
31336;SDS011;22846;42.654;23.314;2023-02-02T01:53:06;4.78;;;3.90;;
31336;SDS011;22846;42.654;23.314;2023-02-02T01:55:33;6.20;;;4.28;;
31336;SDS011;22846;42.654;23.314;2023-02-02T01:58:14;4.97;;;4.47;;
31336;SDS011;22846;42.654;23.314;2023-02-02T02:00:43;5.32;;;4.30;;
31336;SDS011;22846;42.654;23.314;2023-02-02T02:03:10;4.32;;;3.88;;
31336;SDS011;22846;42.654;23.314;2023-02-02T02:05:42;5.45;;;3.95;;
31336;SDS011;22846;42.654;23.314;2023-02-02T02:08:22;5.03;;;3.83;;
31336;SDS011;22846;42.654;23.314;2023-02-02T02:10:50;5.82;;;4.22;;
31336;SDS011;22846;42.654;23.314;2023-02-02T02:13:16;4.30;;;3.70;;
31336;SDS011;22846;42.654;23.314;2023-02-02T02:15:49;4.90;;;4.13;;
31336;SDS011;22846;42.654;23.314;2023-02-02T02:19:30;5.90;;;4.30;;
31336;SDS011;22846;42.654;23.314;2023-02-02T02:21:42;4.32;;;3.72;;
31336;SDS011;22846;42.654;23.314;2023-02-02T02:28:02;4.47;;;3.85;;
31336;SDS011;22846;42.654;23.314;2023-02-02T02:33:43;4.53;;;3.63;;
31336;SDS011;22846;42.654;23.314;2023-02-02T02:36:16;4.45;;;3.70;;
31336;SDS011;22846;42.654;23.314;2023-02-02T02:39:08;4.40;;;3.90;;
31336;SDS011;22846;42.654;23.314;2023-02-02T02:41:51;4.78;;;3.70;;
31336;SDS011;22846;42.654;23.314;2023-02-02T02:44:21;4.27;;;3.17;;
31336;SDS011;22846;42.654;23.314;2023-02-02T02:46:48;4.25;;;3.45;;
31336;SDS011;22846;42.654;23.314;2023-02-02T02:49:15;3.53;;;3.20;;
31336;SDS011;22846;42.654;23.314;2023-02-02T02:51:43;4.10;;;3.45;;
31336;SDS011;22846;42.654;23.314;2023-02-02T02:54:09;4.90;;;3.50;;
31336;SDS011;22846;42.654;23.314;2023-02-02T02:59:32;3.53;;;3.15;;
31336;SDS011;22846;42.654;23.314;2023-02-02T03:02:09;3.40;;;3.10;;
31336;SDS011;22846;42.654;23.314;2023-02-02T03:07:22;4.05;;;3.38;;
31336;SDS011;22846;42.654;23.314;2023-02-02T03:09:53;4.18;;;3.25;;
31336;SDS011;22846;42.654;23.314;2023-02-02T03:12:21;3.42;;;2.90;;
31336;SDS011;22846;42.654;23.314;2023-02-02T03:14:47;4.22;;;3.38;;
31336;SDS011;22846;42.654;23.314;2023-02-02T03:17:13;3.58;;;3.17;;
31336;SDS011;22846;42.654;23.314;2023-02-02T03:19:38;3.67;;;3.10;;
31336;SDS011;22846;42.654;23.314;2023-02-02T03:22:03;3.55;;;2.88;;
31336;SDS011;22846;42.654;23.314;2023-02-02T03:24:29;3.15;;;2.65;;
31336;SDS011;22846;42.654;23.314;2023-02-02T03:26:54;3.78;;;2.95;;
31336;SDS011;22846;42.654;23.314;2023-02-02T03:29:20;4.00;;;2.90;;
31336;SDS011;22846;42.654;23.314;2023-02-02T03:31:45;3.78;;;2.95;;
31336;SDS011;22846;42.654;23.314;2023-02-02T03:34:11;3.95;;;3.20;;
31336;SDS011;22846;42.654;23.314;2023-02-02T03:36:36;3.50;;;2.90;;
31336;SDS011;22846;42.654;23.314;2023-02-02T03:39:02;3.17;;;2.85;;
31336;SDS011;22846;42.654;23.314;2023-02-02T03:41:27;3.28;;;2.83;;
31336;SDS011;22846;42.654;23.314;2023-02-02T03:43:53;3.15;;;2.67;;
31336;SDS011;22846;42.654;23.314;2023-02-02T03:46:18;2.60;;;2.40;;
31336;SDS011;22846;42.654;23.314;2023-02-02T03:48:43;3.38;;;3.00;;
31336;SDS011;22846;42.654;23.314;2023-02-02T03:51:10;3.00;;;2.70;;
31336;SDS011;22846;42.654;23.314;2023-02-02T03:53:38;3.47;;;2.80;;
31336;SDS011;22846;42.654;23.314;2023-02-02T03:56:04;2.97;;;2.67;;
31336;SDS011;22846;42.654;23.314;2023-02-02T03:58:30;3.08;;;2.78;;
31336;SDS011;22846;42.654;23.314;2023-02-02T04:01:02;3.03;;;2.72;;
31336;SDS011;22846;42.654;23.314;2023-02-02T04:03:29;2.83;;;2.50;;
31336;SDS011;22846;42.654;23.314;2023-02-02T04:05:54;3.13;;;2.80;;
31336;SDS011;22846;42.654;23.314;2023-02-02T04:08:20;2.80;;;2.30;;
31336;SDS011;22846;42.654;23.314;2023-02-02T04:10:45;3.33;;;2.40;;
31336;SDS011;22846;42.654;23.314;2023-02-02T04:13:11;2.97;;;2.30;;
31336;SDS011;22846;42.654;23.314;2023-02-02T04:15:36;2.80;;;2.50;;
31336;SDS011;22846;42.654;23.314;2023-02-02T04:18:01;2.50;;;2.30;;
31336;SDS011;22846;42.654;23.314;2023-02-02T04:20:27;2.70;;;2.30;;
31336;SDS011;22846;42.654;23.314;2023-02-02T04:22:53;3.20;;;2.45;;
31336;SDS011;22846;42.654;23.314;2023-02-02T04:25:19;2.92;;;2.33;;
31336;SDS011;22846;42.654;23.314;2023-02-02T04:27:44;2.67;;;2.28;;
31336;SDS011;22846;42.654;23.314;2023-02-02T04:30:10;2.30;;;2.10;;
31336;SDS011;22846;42.654;23.314;2023-02-02T04:32:35;2.50;;;2.30;;
31336;SDS011;22846;42.654;23.314;2023-02-02T04:35:01;2.65;;;2.33;;
31336;SDS011;22846;42.654;23.314;2023-02-02T04:37:28;3.25;;;2.20;;
31336;SDS011;22846;42.654;23.314;2023-02-02T04:39:55;3.63;;;2.40;;
31336;SDS011;22846;42.654;23.314;2023-02-02T04:42:20;2.80;;;2.30;;
31336;SDS011;22846;42.654;23.314;2023-02-02T04:44:45;3.10;;;2.20;;
31336;SDS011;22846;42.654;23.314;2023-02-02T04:47:11;2.90;;;2.30;;
31336;SDS011;22846;42.654;23.314;2023-02-02T04:49:36;2.35;;;2.03;;
31336;SDS011;22846;42.654;23.314;2023-02-02T04:52:02;2.45;;;1.88;;
31336;SDS011;22846;42.654;23.314;2023-02-02T04:54:27;2.30;;;2.00;;
31336;SDS011;22846;42.654;23.314;2023-02-02T04:56:52;2.42;;;1.95;;
31336;SDS011;22846;42.654;23.314;2023-02-02T04:59:18;2.00;;;1.80;;
31336;SDS011;22846;42.654;23.314;2023-02-02T05:01:43;2.28;;;1.80;;
31336;SDS011;22846;42.654;23.314;2023-02-02T05:04:09;2.83;;;2.38;;
31336;SDS011;22846;42.654;23.314;2023-02-02T05:06:35;1.95;;;1.70;;
31336;SDS011;22846;42.654;23.314;2023-02-02T05:09:01;2.25;;;1.95;;
31336;SDS011;22846;42.654;23.314;2023-02-02T05:11:26;4.00;;;1.83;;
31336;SDS011;22846;42.654;23.314;2023-02-02T05:13:52;2.13;;;1.88;;
31336;SDS011;22846;42.654;23.314;2023-02-02T05:16:19;2.28;;;1.77;;
31336;SDS011;22846;42.654;23.314;2023-02-02T05:18:53;2.33;;;1.90;;
31336;SDS011;22846;42.654;23.314;2023-02-02T05:21:20;2.88;;;1.98;;
31336;SDS011;22846;42.654;23.314;2023-02-02T05:23:46;2.70;;;1.80;;
31336;SDS011;22846;42.654;23.314;2023-02-02T05:26:13;1.90;;;1.60;;
31336;SDS011;22846;42.654;23.314;2023-02-02T05:28:41;2.47;;;1.77;;
31336;SDS011;22846;42.654;23.314;2023-02-02T05:31:07;2.38;;;2.05;;
31336;SDS011;22846;42.654;23.314;2023-02-02T05:33:33;2.30;;;2.00;;
31336;SDS011;22846;42.654;23.314;2023-02-02T05:35:58;2.05;;;1.73;;
31336;SDS011;22846;42.654;23.314;2023-02-02T05:38:24;2.65;;;1.85;;
31336;SDS011;22846;42.654;23.314;2023-02-02T05:40:49;2.10;;;1.80;;
31336;SDS011;22846;42.654;23.314;2023-02-02T05:43:15;2.08;;;1.88;;
31336;SDS011;22846;42.654;23.314;2023-02-02T05:45:40;2.50;;;2.00;;
31336;SDS011;22846;42.654;23.314;2023-02-02T05:48:06;6.78;;;2.50;;
31336;SDS011;22846;42.654;23.314;2023-02-02T05:50:31;12.02;;;2.50;;
31336;SDS011;22846;42.654;23.314;2023-02-02T05:52:57;6.32;;;2.40;;
31336;SDS011;22846;42.654;23.314;2023-02-02T05:55:23;6.97;;;2.30;;
31336;SDS011;22846;42.654;23.314;2023-02-02T05:57:49;9.65;;;3.40;;
31336;SDS011;22846;42.654;23.314;2023-02-02T06:00:14;7.15;;;2.70;;
31336;SDS011;22846;42.654;23.314;2023-02-02T06:02:40;4.30;;;2.20;;
31336;SDS011;22846;42.654;23.314;2023-02-02T06:05:05;5.63;;;2.40;;
31336;SDS011;22846;42.654;23.314;2023-02-02T06:07:31;7.00;;;2.47;;
31336;SDS011;22846;42.654;23.314;2023-02-02T06:09:56;3.45;;;1.98;;
31336;SDS011;22846;42.654;23.314;2023-02-02T06:12:22;5.97;;;2.30;;
31336;SDS011;22846;42.654;23.314;2023-02-02T06:14:47;6.25;;;2.33;;
31336;SDS011;22846;42.654;23.314;2023-02-02T06:17:13;17.80;;;2.30;;
31336;SDS011;22846;42.654;23.314;2023-02-02T06:19:38;6.28;;;2.25;;
31336;SDS011;22846;42.654;23.314;2023-02-02T06:22:04;8.60;;;2.10;;
31336;SDS011;22846;42.654;23.314;2023-02-02T06:24:29;7.35;;;2.00;;
31336;SDS011;22846;42.654;23.314;2023-02-02T06:26:54;20.70;;;2.58;;
31336;SDS011;22846;42.654;23.314;2023-02-02T06:29:20;9.02;;;2.60;;
31336;SDS011;22846;42.654;23.314;2023-02-02T06:31:45;11.02;;;2.78;;
31336;SDS011;22846;42.654;23.314;2023-02-02T06:34:11;9.52;;;2.78;;
31336;SDS011;22846;42.654;23.314;2023-02-02T06:36:39;11.48;;;3.13;;
31336;SDS011;22846;42.654;23.314;2023-02-02T06:39:06;5.85;;;2.70;;
31336;SDS011;22846;42.654;23.314;2023-02-02T06:41:34;8.27;;;2.42;;
31336;SDS011;22846;42.654;23.314;2023-02-02T06:44:00;3.83;;;2.10;;
31336;SDS011;22846;42.654;23.314;2023-02-02T06:46:26;7.63;;;2.80;;
31336;SDS011;22846;42.654;23.314;2023-02-02T06:48:51;8.55;;;2.88;;
31336;SDS011;22846;42.654;23.314;2023-02-02T06:51:17;6.97;;;2.53;;
31336;SDS011;22846;42.654;23.314;2023-02-02T06:53:45;7.07;;;2.63;;
31336;SDS011;22846;42.654;23.314;2023-02-02T06:56:12;8.80;;;2.20;;
31336;SDS011;22846;42.654;23.314;2023-02-02T06:58:37;4.32;;;2.72;;
31336;SDS011;22846;42.654;23.314;2023-02-02T07:01:04;6.57;;;2.55;;
31336;SDS011;22846;42.654;23.314;2023-02-02T07:03:30;4.80;;;2.63;;
31336;SDS011;22846;42.654;23.314;2023-02-02T07:05:56;3.47;;;2.20;;
31336;SDS011;22846;42.654;23.314;2023-02-02T07:08:22;6.10;;;2.70;;
31336;SDS011;22846;42.654;23.314;2023-02-02T07:10:47;5.72;;;2.65;;
31336;SDS011;22846;42.654;23.314;2023-02-02T07:13:13;4.80;;;2.20;;
31336;SDS011;22846;42.654;23.314;2023-02-02T07:15:38;4.68;;;2.60;;
31336;SDS011;22846;42.654;23.314;2023-02-02T07:18:04;4.38;;;2.38;;
31336;SDS011;22846;42.654;23.314;2023-02-02T07:20:30;3.90;;;2.35;;
31336;SDS011;22846;42.654;23.314;2023-02-02T07:22:55;3.20;;;2.00;;
31336;SDS011;22846;42.654;23.314;2023-02-02T07:25:22;6.32;;;2.25;;
31336;SDS011;22846;42.654;23.314;2023-02-02T07:27:51;4.03;;;2.25;;
31336;SDS011;22846;42.654;23.314;2023-02-02T07:30:17;4.50;;;2.30;;
31336;SDS011;22846;42.654;23.314;2023-02-02T07:32:47;4.97;;;2.42;;
31336;SDS011;22846;42.654;23.314;2023-02-02T07:35:13;5.40;;;2.28;;
31336;SDS011;22846;42.654;23.314;2023-02-02T07:37:39;3.30;;;2.20;;
31336;SDS011;22846;42.654;23.314;2023-02-02T07:40:05;5.55;;;2.47;;
31336;SDS011;22846;42.654;23.314;2023-02-02T07:42:31;6.38;;;2.30;;
31336;SDS011;22846;42.654;23.314;2023-02-02T07:44:57;6.53;;;2.22;;
31336;SDS011;22846;42.654;23.314;2023-02-02T07:47:23;3.25;;;1.90;;
31336;SDS011;22846;42.654;23.314;2023-02-02T07:49:49;6.50;;;2.40;;
31336;SDS011;22846;42.654;23.314;2023-02-02T07:52:14;4.32;;;1.88;;
31336;SDS011;22846;42.654;23.314;2023-02-02T07:54:40;4.30;;;2.30;;
31336;SDS011;22846;42.654;23.314;2023-02-02T07:57:05;3.78;;;2.10;;
31336;SDS011;22846;42.654;23.314;2023-02-02T07:59:30;4.78;;;1.90;;
31336;SDS011;22846;42.654;23.314;2023-02-02T08:01:56;3.15;;;2.00;;
31336;SDS011;22846;42.654;23.314;2023-02-02T08:04:21;5.20;;;2.15;;
31336;SDS011;22846;42.654;23.314;2023-02-02T08:06:47;5.18;;;2.10;;
31336;SDS011;22846;42.654;23.314;2023-02-02T08:09:12;4.80;;;1.90;;
31336;SDS011;22846;42.654;23.314;2023-02-02T08:11:37;4.78;;;2.38;;
31336;SDS011;22846;42.654;23.314;2023-02-02T08:14:03;3.13;;;2.00;;
31336;SDS011;22846;42.654;23.314;2023-02-02T08:16:30;3.97;;;2.20;;
31336;SDS011;22846;42.654;23.314;2023-02-02T08:18:56;3.83;;;2.15;;
31336;SDS011;22846;42.654;23.314;2023-02-02T08:21:22;4.20;;;2.20;;
31336;SDS011;22846;42.654;23.314;2023-02-02T08:23:48;3.40;;;2.10;;
31336;SDS011;22846;42.654;23.314;2023-02-02T08:26:25;3.92;;;2.00;;
31336;SDS011;22846;42.654;23.314;2023-02-02T08:28:54;3.55;;;2.10;;
31336;SDS011;22846;42.654;23.314;2023-02-02T08:31:31;3.35;;;1.95;;
31336;SDS011;22846;42.654;23.314;2023-02-02T08:33:57;3.97;;;1.80;;
31336;SDS011;22846;42.654;23.314;2023-02-02T08:36:23;3.58;;;1.90;;
31336;SDS011;22846;42.654;23.314;2023-02-02T08:38:49;2.90;;;1.73;;
31336;SDS011;22846;42.654;23.314;2023-02-02T08:41:16;4.15;;;1.73;;
31336;SDS011;22846;42.654;23.314;2023-02-02T08:43:44;3.20;;;1.83;;
31336;SDS011;22846;42.654;23.314;2023-02-02T08:46:10;2.65;;;1.85;;
31336;SDS011;22846;42.654;23.314;2023-02-02T08:48:37;4.85;;;1.88;;
31336;SDS011;22846;42.654;23.314;2023-02-02T08:51:03;2.95;;;2.10;;
31336;SDS011;22846;42.654;23.314;2023-02-02T08:53:29;3.35;;;2.13;;
31336;SDS011;22846;42.654;23.314;2023-02-02T09:00:54;4.63;;;2.95;;
31336;SDS011;22846;42.654;23.314;2023-02-02T09:03:30;3.40;;;2.28;;
31336;SDS011;22846;42.654;23.314;2023-02-02T09:05:56;3.92;;;2.22;;
31336;SDS011;22846;42.654;23.314;2023-02-02T09:08:21;7.13;;;2.33;;
31336;SDS011;22846;42.654;23.314;2023-02-02T09:10:47;2.60;;;2.10;;
31336;SDS011;22846;42.654;23.314;2023-02-02T09:13:12;3.83;;;2.13;;
31336;SDS011;22846;42.654;23.314;2023-02-02T09:15:37;3.17;;;2.00;;
31336;SDS011;22846;42.654;23.314;2023-02-02T09:18:03;4.13;;;2.55;;
31336;SDS011;22846;42.654;23.314;2023-02-02T09:20:28;4.07;;;2.70;;
31336;SDS011;22846;42.654;23.314;2023-02-02T09:22:54;3.45;;;2.40;;
31336;SDS011;22846;42.654;23.314;2023-02-02T09:25:21;3.97;;;2.78;;
31336;SDS011;22846;42.654;23.314;2023-02-02T09:27:48;4.03;;;2.42;;
31336;SDS011;22846;42.654;23.314;2023-02-02T09:30:14;4.85;;;2.55;;
31336;SDS011;22846;42.654;23.314;2023-02-02T09:32:39;3.47;;;2.38;;
31336;SDS011;22846;42.654;23.314;2023-02-02T09:35:05;3.97;;;2.45;;
31336;SDS011;22846;42.654;23.314;2023-02-02T09:37:32;5.32;;;2.42;;
31336;SDS011;22846;42.654;23.314;2023-02-02T09:39:58;4.97;;;2.58;;
31336;SDS011;22846;42.654;23.314;2023-02-02T09:42:42;4.25;;;2.60;;
31336;SDS011;22846;42.654;23.314;2023-02-02T09:45:21;3.63;;;2.58;;
31336;SDS011;22846;42.654;23.314;2023-02-02T09:48:03;3.67;;;2.42;;
31336;SDS011;22846;42.654;23.314;2023-02-02T09:50:41;4.57;;;2.60;;
31336;SDS011;22846;42.654;23.314;2023-02-02T09:56:23;3.75;;;2.58;;
31336;SDS011;22846;42.654;23.314;2023-02-02T09:59:06;2.83;;;2.40;;
31336;SDS011;22846;42.654;23.314;2023-02-02T10:01:39;3.58;;;2.78;;
31336;SDS011;22846;42.654;23.314;2023-02-02T10:06:35;3.28;;;2.38;;
31336;SDS011;22846;42.654;23.314;2023-02-02T10:11:48;4.35;;;2.70;;
31336;SDS011;22846;42.654;23.314;2023-02-02T10:14:26;3.83;;;2.40;;
31336;SDS011;22846;42.654;23.314;2023-02-02T10:16:58;3.85;;;2.70;;
31336;SDS011;22846;42.654;23.314;2023-02-02T10:19:34;4.40;;;2.70;;
31336;SDS011;22846;42.654;23.314;2023-02-02T10:22:08;3.90;;;2.40;;
31336;SDS011;22846;42.654;23.314;2023-02-02T10:24:39;4.00;;;2.80;;
31336;SDS011;22846;42.654;23.314;2023-02-02T10:27:05;3.33;;;2.47;;
31336;SDS011;22846;42.654;23.314;2023-02-02T10:32:24;2.92;;;2.38;;
31336;SDS011;22846;42.654;23.314;2023-02-02T10:43:25;4.82;;;2.80;;
31336;SDS011;22846;42.654;23.314;2023-02-02T10:46:19;3.42;;;2.50;;
31336;SDS011;22846;42.654;23.314;2023-02-02T10:48:48;4.20;;;2.67;;
31336;SDS011;22846;42.654;23.314;2023-02-02T10:51:20;3.33;;;2.38;;
31336;SDS011;22846;42.654;23.314;2023-02-02T10:53:54;3.53;;;2.30;;
31336;SDS011;22846;42.654;23.314;2023-02-02T10:56:24;3.65;;;2.70;;
31336;SDS011;22846;42.654;23.314;2023-02-02T11:01:39;3.97;;;2.55;;
31336;SDS011;22846;42.654;23.314;2023-02-02T11:04:05;4.40;;;2.88;;
31336;SDS011;22846;42.654;23.314;2023-02-02T11:06:49;5.20;;;2.63;;
31336;SDS011;22846;42.654;23.314;2023-02-02T11:09:22;3.10;;;2.30;;
31336;SDS011;22846;42.654;23.314;2023-02-02T11:11:50;3.30;;;2.45;;
31336;SDS011;22846;42.654;23.314;2023-02-02T11:15:02;4.13;;;2.72;;
31336;SDS011;22846;42.654;23.314;2023-02-02T11:17:24;3.00;;;2.20;;
31336;SDS011;22846;42.654;23.314;2023-02-02T11:19:50;3.88;;;2.30;;
31336;SDS011;22846;42.654;23.314;2023-02-02T11:22:49;4.38;;;2.60;;
31336;SDS011;22846;42.654;23.314;2023-02-02T11:27:58;4.13;;;2.58;;
31336;SDS011;22846;42.654;23.314;2023-02-02T11:30:35;3.60;;;2.50;;
31336;SDS011;22846;42.654;23.314;2023-02-02T11:33:18;3.88;;;2.40;;
31336;SDS011;22846;42.654;23.314;2023-02-02T11:35:54;4.20;;;2.50;;
31336;SDS011;22846;42.654;23.314;2023-02-02T11:38:43;3.80;;;2.42;;
31336;SDS011;22846;42.654;23.314;2023-02-02T11:41:08;3.50;;;2.28;;
31336;SDS011;22846;42.654;23.314;2023-02-02T11:43:38;3.80;;;2.60;;
31336;SDS011;22846;42.654;23.314;2023-02-02T11:46:21;3.63;;;2.22;;
31336;SDS011;22846;42.654;23.314;2023-02-02T11:51:24;3.85;;;2.60;;
31336;SDS011;22846;42.654;23.314;2023-02-02T11:54:01;3.53;;;2.30;;
31336;SDS011;22846;42.654;23.314;2023-02-02T11:56:31;4.35;;;2.67;;
31336;SDS011;22846;42.654;23.314;2023-02-02T11:58:59;3.13;;;2.30;;
31336;SDS011;22846;42.654;23.314;2023-02-02T12:01:32;3.50;;;2.42;;
31336;SDS011;22846;42.654;23.314;2023-02-02T12:06:37;3.30;;;2.20;;
31336;SDS011;22846;42.654;23.314;2023-02-02T12:09:09;3.30;;;2.50;;
31336;SDS011;22846;42.654;23.314;2023-02-02T12:14:35;4.72;;;2.00;;
31336;SDS011;22846;42.654;23.314;2023-02-02T12:17:10;3.20;;;2.13;;
31336;SDS011;22846;42.654;23.314;2023-02-02T12:22:40;3.20;;;2.13;;
31336;SDS011;22846;42.654;23.314;2023-02-02T12:33:04;2.40;;;2.00;;
31336;SDS011;22846;42.654;23.314;2023-02-02T12:39:02;3.22;;;2.20;;
31336;SDS011;22846;42.654;23.314;2023-02-02T12:47:05;3.17;;;2.30;;
31336;SDS011;22846;42.654;23.314;2023-02-02T12:52:17;4.40;;;2.45;;
31336;SDS011;22846;42.654;23.314;2023-02-02T12:55:25;2.97;;;2.03;;
31336;SDS011;22846;42.654;23.314;2023-02-02T13:08:59;5.35;;;2.70;;
31336;SDS011;22846;42.654;23.314;2023-02-02T13:14:07;3.47;;;2.22;;
31336;SDS011;22846;42.654;23.314;2023-02-02T13:16:34;3.25;;;2.15;;
31336;SDS011;22846;42.654;23.314;2023-02-02T13:19:03;3.78;;;2.15;;
31336;SDS011;22846;42.654;23.314;2023-02-02T13:21:51;3.05;;;2.28;;
31336;SDS011;22846;42.654;23.314;2023-02-02T13:24:23;3.13;;;2.13;;
31336;SDS011;22846;42.654;23.314;2023-02-02T13:26:52;2.70;;;2.20;;
31336;SDS011;22846;42.654;23.314;2023-02-02T13:32:22;2.60;;;2.00;;
31336;SDS011;22846;42.654;23.314;2023-02-02T13:35:09;2.65;;;2.08;;
31336;SDS011;22846;42.654;23.314;2023-02-02T13:37:46;3.08;;;2.38;;
31336;SDS011;22846;42.654;23.314;2023-02-02T13:42:46;4.07;;;2.10;;
31336;SDS011;22846;42.654;23.314;2023-02-02T13:48:31;3.33;;;2.28;;
31336;SDS011;22846;42.654;23.314;2023-02-02T13:53:50;2.95;;;2.05;;
31336;SDS011;22846;42.654;23.314;2023-02-02T14:01:49;3.33;;;2.30;;
31336;SDS011;22846;42.654;23.314;2023-02-02T14:04:23;2.92;;;2.15;;
31336;SDS011;22846;42.654;23.314;2023-02-02T14:09:20;2.30;;;1.80;;
31336;SDS011;22846;42.654;23.314;2023-02-02T14:11:52;3.33;;;2.05;;
31336;SDS011;22846;42.654;23.314;2023-02-02T14:14:22;2.47;;;2.00;;
31336;SDS011;22846;42.654;23.314;2023-02-02T14:16:59;2.40;;;1.85;;
31336;SDS011;22846;42.654;23.314;2023-02-02T14:19:52;2.70;;;2.00;;
31336;SDS011;22846;42.654;23.314;2023-02-02T14:22:19;2.92;;;1.90;;
31336;SDS011;22846;42.654;23.314;2023-02-02T14:25:02;3.13;;;2.05;;
31336;SDS011;22846;42.654;23.314;2023-02-02T14:30:23;2.20;;;1.95;;
31336;SDS011;22846;42.654;23.314;2023-02-02T14:32:51;2.53;;;1.80;;
31336;SDS011;22846;42.654;23.314;2023-02-02T14:36:00;3.85;;;2.00;;
31336;SDS011;22846;42.654;23.314;2023-02-02T14:41:17;2.08;;;1.50;;
31336;SDS011;22846;42.654;23.314;2023-02-02T14:44:25;2.20;;;1.85;;
31336;SDS011;22846;42.654;23.314;2023-02-02T14:46:50;2.13;;;1.88;;
31336;SDS011;22846;42.654;23.314;2023-02-02T14:49:17;2.70;;;1.90;;
31336;SDS011;22846;42.654;23.314;2023-02-02T14:51:55;2.15;;;1.70;;
31336;SDS011;22846;42.654;23.314;2023-02-02T14:54:24;3.40;;;1.90;;
31336;SDS011;22846;42.654;23.314;2023-02-02T14:56:54;1.98;;;1.60;;
31336;SDS011;22846;42.654;23.314;2023-02-02T14:59:23;2.85;;;2.00;;
31336;SDS011;22846;42.654;23.314;2023-02-02T15:02:35;2.58;;;2.20;;
31336;SDS011;22846;42.654;23.314;2023-02-02T15:04:44;2.38;;;1.90;;
31336;SDS011;22846;42.654;23.314;2023-02-02T15:07:55;2.33;;;1.58;;
31336;SDS011;22846;42.654;23.314;2023-02-02T15:10:02;2.78;;;2.00;;
31336;SDS011;22846;42.654;23.314;2023-02-02T15:12:30;2.13;;;1.80;;
31336;SDS011;22846;42.654;23.314;2023-02-02T15:15:04;2.22;;;1.67;;
31336;SDS011;22846;42.654;23.314;2023-02-02T15:23:04;2.50;;;1.70;;
31336;SDS011;22846;42.654;23.314;2023-02-02T15:25:58;2.80;;;2.00;;
31336;SDS011;22846;42.654;23.314;2023-02-02T15:36:47;2.15;;;1.70;;
31336;SDS011;22846;42.654;23.314;2023-02-02T15:41:42;2.58;;;1.88;;
31336;SDS011;22846;42.654;23.314;2023-02-02T15:44:19;2.13;;;1.77;;
31336;SDS011;22846;42.654;23.314;2023-02-02T15:46:50;2.17;;;1.65;;
31336;SDS011;22846;42.654;23.314;2023-02-02T15:51:49;2.20;;;1.65;;
31336;SDS011;22846;42.654;23.314;2023-02-02T15:54:21;2.30;;;1.70;;
31336;SDS011;22846;42.654;23.314;2023-02-02T15:56:48;1.77;;;1.60;;
31336;SDS011;22846;42.654;23.314;2023-02-02T15:59:19;2.97;;;1.80;;
31336;SDS011;22846;42.654;23.314;2023-02-02T16:01:50;2.72;;;1.77;;
31336;SDS011;22846;42.654;23.314;2023-02-02T16:04:33;2.92;;;1.77;;
31336;SDS011;22846;42.654;23.314;2023-02-02T16:07:01;2.20;;;1.70;;
31336;SDS011;22846;42.654;23.314;2023-02-02T16:09:32;1.90;;;1.58;;
31336;SDS011;22846;42.654;23.314;2023-02-02T16:11:59;2.22;;;1.60;;
31336;SDS011;22846;42.654;23.314;2023-02-02T16:14:27;2.88;;;1.80;;
31336;SDS011;22846;42.654;23.314;2023-02-02T16:16:53;2.55;;;1.90;;
31336;SDS011;22846;42.654;23.314;2023-02-02T16:19:20;8.65;;;2.03;;
31336;SDS011;22846;42.654;23.314;2023-02-02T16:21:55;5.65;;;2.10;;
31336;SDS011;22846;42.654;23.314;2023-02-02T16:24:29;7.32;;;2.20;;
31336;SDS011;22846;42.654;23.314;2023-02-02T16:26:58;7.55;;;2.03;;
31336;SDS011;22846;42.654;23.314;2023-02-02T16:29:26;8.88;;;1.95;;
31336;SDS011;22846;42.654;23.314;2023-02-02T16:31:53;2.83;;;1.65;;
31336;SDS011;22846;42.654;23.314;2023-02-02T16:40:13;4.78;;;2.10;;
31336;SDS011;22846;42.654;23.314;2023-02-02T16:42:40;7.68;;;2.33;;
31336;SDS011;22846;42.654;23.314;2023-02-02T16:45:06;6.10;;;2.03;;
31336;SDS011;22846;42.654;23.314;2023-02-02T16:47:52;5.63;;;2.55;;
31336;SDS011;22846;42.654;23.314;2023-02-02T16:52:54;7.05;;;2.42;;
31336;SDS011;22846;42.654;23.314;2023-02-02T16:55:23;9.48;;;2.83;;
31336;SDS011;22846;42.654;23.314;2023-02-02T16:57:53;22.80;;;10.63;;
31336;SDS011;22846;42.654;23.314;2023-02-02T17:00:20;56.15;;;38.28;;
31336;SDS011;22846;42.654;23.314;2023-02-02T17:02:48;20.27;;;14.20;;
31336;SDS011;22846;42.654;23.314;2023-02-02T17:10:39;29.30;;;16.80;;
31336;SDS011;22846;42.654;23.314;2023-02-02T17:15:54;31.35;;;15.57;;